sensor_id;sensor_type;location;lat;lon;timestamp;P1;durP1;ratioP1;P2;durP2;ratioP2
20474;SDS011;10396;51.724;23.090;2022-09-09T00:00:53;13.02;;;4.90;;
20474;SDS011;10396;51.724;23.090;2022-09-09T00:03:34;16.75;;;5.25;;
20474;SDS011;10396;51.724;23.090;2022-09-09T00:06:07;16.67;;;5.15;;
20474;SDS011;10396;51.724;23.090;2022-09-09T00:08:41;11.32;;;5.03;;
20474;SDS011;10396;51.724;23.090;2022-09-09T00:11:14;12.68;;;5.05;;
20474;SDS011;10396;51.724;23.090;2022-09-09T00:13:50;13.30;;;5.13;;
20474;SDS011;10396;51.724;23.090;2022-09-09T00:16:21;11.27;;;4.85;;
20474;SDS011;10396;51.724;23.090;2022-09-09T00:18:54;13.27;;;5.63;;
20474;SDS011;10396;51.724;23.090;2022-09-09T00:21:28;11.98;;;5.70;;
20474;SDS011;10396;51.724;23.090;2022-09-09T00:23:59;10.85;;;4.88;;
20474;SDS011;10396;51.724;23.090;2022-09-09T00:26:32;11.32;;;5.10;;
20474;SDS011;10396;51.724;23.090;2022-09-09T00:29:04;12.40;;;5.45;;
20474;SDS011;10396;51.724;23.090;2022-09-09T00:31:36;12.23;;;4.90;;
20474;SDS011;10396;51.724;23.090;2022-09-09T00:34:09;11.45;;;4.85;;
20474;SDS011;10396;51.724;23.090;2022-09-09T00:36:39;12.25;;;4.82;;
20474;SDS011;10396;51.724;23.090;2022-09-09T00:39:08;13.48;;;5.30;;
20474;SDS011;10396;51.724;23.090;2022-09-09T00:41:43;12.43;;;5.35;;
20474;SDS011;10396;51.724;23.090;2022-09-09T00:44:20;12.10;;;4.80;;
20474;SDS011;10396;51.724;23.090;2022-09-09T00:49:28;12.93;;;4.53;;
20474;SDS011;10396;51.724;23.090;2022-09-09T00:52:06;11.63;;;4.68;;
20474;SDS011;10396;51.724;23.090;2022-09-09T00:54:45;10.07;;;4.70;;
20474;SDS011;10396;51.724;23.090;2022-09-09T00:57:22;11.40;;;5.05;;
20474;SDS011;10396;51.724;23.090;2022-09-09T00:59:56;11.10;;;4.80;;
20474;SDS011;10396;51.724;23.090;2022-09-09T01:02:29;13.18;;;5.07;;
20474;SDS011;10396;51.724;23.090;2022-09-09T01:05:06;13.98;;;6.07;;
20474;SDS011;10396;51.724;23.090;2022-09-09T01:07:37;15.07;;;6.50;;
20474;SDS011;10396;51.724;23.090;2022-09-09T01:10:07;12.75;;;6.40;;
20474;SDS011;10396;51.724;23.090;2022-09-09T01:12:39;16.23;;;6.78;;
20474;SDS011;10396;51.724;23.090;2022-09-09T01:15:10;15.85;;;6.82;;
20474;SDS011;10396;51.724;23.090;2022-09-09T01:17:44;13.55;;;6.10;;
20474;SDS011;10396;51.724;23.090;2022-09-09T01:20:18;12.32;;;6.05;;
20474;SDS011;10396;51.724;23.090;2022-09-09T01:22:52;12.30;;;5.43;;
20474;SDS011;10396;51.724;23.090;2022-09-09T01:28:43;13.52;;;5.70;;
20474;SDS011;10396;51.724;23.090;2022-09-09T01:31:13;12.18;;;5.75;;
20474;SDS011;10396;51.724;23.090;2022-09-09T01:33:42;13.27;;;6.20;;
20474;SDS011;10396;51.724;23.090;2022-09-09T01:36:10;18.30;;;6.82;;
20474;SDS011;10396;51.724;23.090;2022-09-09T01:38:41;15.68;;;7.07;;
20474;SDS011;10396;51.724;23.090;2022-09-09T01:41:08;16.70;;;7.90;;
20474;SDS011;10396;51.724;23.090;2022-09-09T01:43:37;18.30;;;7.57;;
20474;SDS011;10396;51.724;23.090;2022-09-09T01:46:05;15.63;;;7.90;;
20474;SDS011;10396;51.724;23.090;2022-09-09T01:48:32;16.98;;;8.68;;
20474;SDS011;10396;51.724;23.090;2022-09-09T01:51:00;18.02;;;8.48;;
20474;SDS011;10396;51.724;23.090;2022-09-09T01:53:27;18.45;;;9.05;;
20474;SDS011;10396;51.724;23.090;2022-09-09T01:55:57;19.25;;;8.90;;
20474;SDS011;10396;51.724;23.090;2022-09-09T01:58:32;17.92;;;9.07;;
20474;SDS011;10396;51.724;23.090;2022-09-09T02:01:05;23.77;;;10.27;;
20474;SDS011;10396;51.724;23.090;2022-09-09T02:03:35;20.23;;;10.23;;
20474;SDS011;10396;51.724;23.090;2022-09-09T02:06:05;19.70;;;10.70;;
20474;SDS011;10396;51.724;23.090;2022-09-09T02:08:41;24.00;;;11.65;;
20474;SDS011;10396;51.724;23.090;2022-09-09T02:11:12;20.75;;;10.85;;
20474;SDS011;10396;51.724;23.090;2022-09-09T02:13:41;26.65;;;12.00;;
20474;SDS011;10396;51.724;23.090;2022-09-09T02:16:12;21.08;;;12.07;;
20474;SDS011;10396;51.724;23.090;2022-09-09T02:18:44;23.00;;;12.20;;
20474;SDS011;10396;51.724;23.090;2022-09-09T02:21:14;23.83;;;12.55;;
20474;SDS011;10396;51.724;23.090;2022-09-09T02:23:43;23.88;;;12.27;;
20474;SDS011;10396;51.724;23.090;2022-09-09T02:26:12;23.52;;;12.60;;
20474;SDS011;10396;51.724;23.090;2022-09-09T02:28:45;22.77;;;12.85;;
20474;SDS011;10396;51.724;23.090;2022-09-09T02:31:14;23.40;;;12.77;;
20474;SDS011;10396;51.724;23.090;2022-09-09T02:33:45;23.13;;;12.80;;
20474;SDS011;10396;51.724;23.090;2022-09-09T02:36:17;26.35;;;13.88;;
20474;SDS011;10396;51.724;23.090;2022-09-09T02:38:46;26.02;;;12.82;;
20474;SDS011;10396;51.724;23.090;2022-09-09T02:41:18;26.00;;;13.50;;
20474;SDS011;10396;51.724;23.090;2022-09-09T02:43:47;27.00;;;14.13;;
20474;SDS011;10396;51.724;23.090;2022-09-09T02:46:22;23.98;;;13.25;;
20474;SDS011;10396;51.724;23.090;2022-09-09T02:48:58;26.38;;;14.25;;
20474;SDS011;10396;51.724;23.090;2022-09-09T02:51:28;26.92;;;13.90;;
20474;SDS011;10396;51.724;23.090;2022-09-09T02:54:03;26.20;;;13.57;;
20474;SDS011;10396;51.724;23.090;2022-09-09T02:56:36;28.73;;;14.18;;
20474;SDS011;10396;51.724;23.090;2022-09-09T02:59:07;27.35;;;14.25;;
20474;SDS011;10396;51.724;23.090;2022-09-09T03:01:36;27.42;;;14.40;;
20474;SDS011;10396;51.724;23.090;2022-09-09T03:04:05;24.77;;;14.60;;
20474;SDS011;10396;51.724;23.090;2022-09-09T03:06:33;24.15;;;13.73;;
20474;SDS011;10396;51.724;23.090;2022-09-09T03:09:01;29.10;;;14.43;;
20474;SDS011;10396;51.724;23.090;2022-09-09T03:11:28;27.60;;;14.35;;
20474;SDS011;10396;51.724;23.090;2022-09-09T03:13:56;24.98;;;14.93;;
20474;SDS011;10396;51.724;23.090;2022-09-09T03:16:23;25.85;;;14.68;;
20474;SDS011;10396;51.724;23.090;2022-09-09T03:18:52;25.15;;;14.25;;
20474;SDS011;10396;51.724;23.090;2022-09-09T03:21:20;24.70;;;14.50;;
20474;SDS011;10396;51.724;23.090;2022-09-09T03:23:47;27.45;;;15.38;;
20474;SDS011;10396;51.724;23.090;2022-09-09T03:26:15;22.85;;;13.63;;
20474;SDS011;10396;51.724;23.090;2022-09-09T03:28:42;28.00;;;14.20;;
20474;SDS011;10396;51.724;23.090;2022-09-09T03:31:10;28.95;;;14.82;;
20474;SDS011;10396;51.724;23.090;2022-09-09T03:33:37;28.58;;;15.45;;
20474;SDS011;10396;51.724;23.090;2022-09-09T03:36:08;28.77;;;14.80;;
20474;SDS011;10396;51.724;23.090;2022-09-09T03:38:36;28.20;;;14.68;;
20474;SDS011;10396;51.724;23.090;2022-09-09T03:41:03;28.15;;;14.73;;
20474;SDS011;10396;51.724;23.090;2022-09-09T03:43:31;23.92;;;14.10;;
20474;SDS011;10396;51.724;23.090;2022-09-09T03:45:58;23.75;;;13.93;;
20474;SDS011;10396;51.724;23.090;2022-09-09T03:48:26;27.13;;;15.25;;
20474;SDS011;10396;51.724;23.090;2022-09-09T03:50:55;28.70;;;15.23;;
20474;SDS011;10396;51.724;23.090;2022-09-09T03:53:24;28.52;;;15.07;;
20474;SDS011;10396;51.724;23.090;2022-09-09T03:55:53;27.08;;;15.02;;
20474;SDS011;10396;51.724;23.090;2022-09-09T03:58:22;27.33;;;14.82;;
20474;SDS011;10396;51.724;23.090;2022-09-09T04:00:55;29.02;;;14.98;;
20474;SDS011;10396;51.724;23.090;2022-09-09T04:03:23;25.70;;;14.40;;
20474;SDS011;10396;51.724;23.090;2022-09-09T04:05:51;26.52;;;14.18;;
20474;SDS011;10396;51.724;23.090;2022-09-09T04:08:19;26.77;;;15.05;;
20474;SDS011;10396;51.724;23.090;2022-09-09T04:10:49;25.10;;;14.13;;
20474;SDS011;10396;51.724;23.090;2022-09-09T04:13:17;24.40;;;13.85;;
20474;SDS011;10396;51.724;23.090;2022-09-09T04:15:50;25.30;;;13.82;;
20474;SDS011;10396;51.724;23.090;2022-09-09T04:18:18;24.45;;;14.48;;
20474;SDS011;10396;51.724;23.090;2022-09-09T04:20:46;27.45;;;14.55;;
20474;SDS011;10396;51.724;23.090;2022-09-09T04:23:14;26.67;;;14.70;;
20474;SDS011;10396;51.724;23.090;2022-09-09T04:25:45;23.50;;;13.70;;
20474;SDS011;10396;51.724;23.090;2022-09-09T04:28:15;25.45;;;14.55;;
20474;SDS011;10396;51.724;23.090;2022-09-09T04:30:43;26.42;;;14.45;;
20474;SDS011;10396;51.724;23.090;2022-09-09T04:33:11;25.63;;;14.60;;
20474;SDS011;10396;51.724;23.090;2022-09-09T04:35:39;28.50;;;15.13;;
20474;SDS011;10396;51.724;23.090;2022-09-09T04:38:11;28.35;;;14.80;;
20474;SDS011;10396;51.724;23.090;2022-09-09T04:40:39;26.63;;;14.70;;
20474;SDS011;10396;51.724;23.090;2022-09-09T04:43:09;25.13;;;14.68;;
20474;SDS011;10396;51.724;23.090;2022-09-09T04:45:38;26.55;;;15.30;;
20474;SDS011;10396;51.724;23.090;2022-09-09T04:48:06;29.35;;;14.55;;
20474;SDS011;10396;51.724;23.090;2022-09-09T04:50:35;25.98;;;14.38;;
20474;SDS011;10396;51.724;23.090;2022-09-09T04:53:02;26.55;;;14.68;;
20474;SDS011;10396;51.724;23.090;2022-09-09T04:55:30;26.55;;;14.77;;
20474;SDS011;10396;51.724;23.090;2022-09-09T04:58:02;24.73;;;14.20;;
20474;SDS011;10396;51.724;23.090;2022-09-09T05:00:31;27.48;;;14.55;;
20474;SDS011;10396;51.724;23.090;2022-09-09T05:03:03;25.50;;;14.68;;
20474;SDS011;10396;51.724;23.090;2022-09-09T05:05:31;24.58;;;15.27;;
20474;SDS011;10396;51.724;23.090;2022-09-09T05:08:00;26.95;;;14.18;;
20474;SDS011;10396;51.724;23.090;2022-09-09T05:10:29;29.17;;;14.48;;
20474;SDS011;10396;51.724;23.090;2022-09-09T05:12:57;22.95;;;14.02;;
20474;SDS011;10396;51.724;23.090;2022-09-09T05:15:24;24.02;;;14.20;;
20474;SDS011;10396;51.724;23.090;2022-09-09T05:17:52;26.65;;;14.73;;
20474;SDS011;10396;51.724;23.090;2022-09-09T05:20:21;26.75;;;15.50;;
20474;SDS011;10396;51.724;23.090;2022-09-09T05:22:52;26.45;;;14.18;;
20474;SDS011;10396;51.724;23.090;2022-09-09T05:25:20;26.08;;;14.05;;
20474;SDS011;10396;51.724;23.090;2022-09-09T05:27:47;25.60;;;13.50;;
20474;SDS011;10396;51.724;23.090;2022-09-09T05:30:15;25.65;;;13.95;;
20474;SDS011;10396;51.724;23.090;2022-09-09T05:32:44;25.52;;;14.02;;
20474;SDS011;10396;51.724;23.090;2022-09-09T05:35:13;27.60;;;14.02;;
20474;SDS011;10396;51.724;23.090;2022-09-09T05:37:42;24.52;;;14.43;;
20474;SDS011;10396;51.724;23.090;2022-09-09T05:40:11;25.02;;;14.60;;
20474;SDS011;10396;51.724;23.090;2022-09-09T05:42:39;25.48;;;14.80;;
20474;SDS011;10396;51.724;23.090;2022-09-09T05:45:07;24.38;;;13.82;;
20474;SDS011;10396;51.724;23.090;2022-09-09T05:47:36;25.58;;;13.90;;
20474;SDS011;10396;51.724;23.090;2022-09-09T05:50:04;24.08;;;14.57;;
20474;SDS011;10396;51.724;23.090;2022-09-09T05:52:33;26.60;;;14.65;;
20474;SDS011;10396;51.724;23.090;2022-09-09T05:55:02;24.00;;;14.35;;
20474;SDS011;10396;51.724;23.090;2022-09-09T05:57:30;24.73;;;14.88;;
20474;SDS011;10396;51.724;23.090;2022-09-09T05:59:57;27.77;;;14.82;;
20474;SDS011;10396;51.724;23.090;2022-09-09T06:02:25;28.98;;;15.93;;
20474;SDS011;10396;51.724;23.090;2022-09-09T06:04:53;26.63;;;15.05;;
20474;SDS011;10396;51.724;23.090;2022-09-09T06:07:21;24.10;;;14.50;;
20474;SDS011;10396;51.724;23.090;2022-09-09T06:09:48;28.85;;;15.40;;
20474;SDS011;10396;51.724;23.090;2022-09-09T06:12:18;28.02;;;14.88;;
20474;SDS011;10396;51.724;23.090;2022-09-09T06:14:46;25.95;;;15.05;;
20474;SDS011;10396;51.724;23.090;2022-09-09T06:17:13;25.73;;;14.65;;
20474;SDS011;10396;51.724;23.090;2022-09-09T06:19:41;26.08;;;14.88;;
20474;SDS011;10396;51.724;23.090;2022-09-09T06:22:08;26.50;;;15.95;;
20474;SDS011;10396;51.724;23.090;2022-09-09T06:24:38;26.77;;;14.85;;
20474;SDS011;10396;51.724;23.090;2022-09-09T06:27:05;26.27;;;14.00;;
20474;SDS011;10396;51.724;23.090;2022-09-09T06:29:34;28.00;;;14.68;;
20474;SDS011;10396;51.724;23.090;2022-09-09T06:32:02;22.83;;;13.50;;
20474;SDS011;10396;51.724;23.090;2022-09-09T06:34:30;27.95;;;14.30;;
20474;SDS011;10396;51.724;23.090;2022-09-09T06:36:57;21.80;;;12.82;;
20474;SDS011;10396;51.724;23.090;2022-09-09T06:39:25;23.55;;;13.60;;
20474;SDS011;10396;51.724;23.090;2022-09-09T06:41:52;23.83;;;13.50;;
20474;SDS011;10396;51.724;23.090;2022-09-09T06:44:20;24.70;;;13.13;;
20474;SDS011;10396;51.724;23.090;2022-09-09T06:46:49;21.73;;;13.23;;
20474;SDS011;10396;51.724;23.090;2022-09-09T06:49:17;24.38;;;14.00;;
20474;SDS011;10396;51.724;23.090;2022-09-09T06:51:45;24.98;;;13.85;;
20474;SDS011;10396;51.724;23.090;2022-09-09T06:54:12;24.30;;;13.18;;
20474;SDS011;10396;51.724;23.090;2022-09-09T06:56:41;21.20;;;12.38;;
20474;SDS011;10396;51.724;23.090;2022-09-09T06:59:09;21.25;;;12.88;;
20474;SDS011;10396;51.724;23.090;2022-09-09T07:01:38;24.80;;;13.23;;
20474;SDS011;10396;51.724;23.090;2022-09-09T07:04:08;21.92;;;12.48;;
20474;SDS011;10396;51.724;23.090;2022-09-09T07:06:37;20.52;;;12.05;;
20474;SDS011;10396;51.724;23.090;2022-09-09T07:09:06;18.40;;;11.68;;
20474;SDS011;10396;51.724;23.090;2022-09-09T07:11:37;20.50;;;11.90;;
20474;SDS011;10396;51.724;23.090;2022-09-09T07:14:05;21.00;;;12.10;;
20474;SDS011;10396;51.724;23.090;2022-09-09T07:16:33;21.80;;;12.18;;
20474;SDS011;10396;51.724;23.090;2022-09-09T07:19:03;21.20;;;12.32;;
20474;SDS011;10396;51.724;23.090;2022-09-09T07:21:32;22.27;;;11.80;;
20474;SDS011;10396;51.724;23.090;2022-09-09T07:24:00;21.27;;;11.50;;
20474;SDS011;10396;51.724;23.090;2022-09-09T07:26:30;22.10;;;11.55;;
20474;SDS011;10396;51.724;23.090;2022-09-09T07:28:58;20.92;;;12.25;;
20474;SDS011;10396;51.724;23.090;2022-09-09T07:31:27;20.23;;;11.88;;
20474;SDS011;10396;51.724;23.090;2022-09-09T07:33:56;20.40;;;11.30;;
20474;SDS011;10396;51.724;23.090;2022-09-09T07:36:25;18.73;;;11.20;;
20474;SDS011;10396;51.724;23.090;2022-09-09T07:38:56;19.30;;;10.65;;
20474;SDS011;10396;51.724;23.090;2022-09-09T07:41:25;17.30;;;10.40;;
20474;SDS011;10396;51.724;23.090;2022-09-09T07:43:53;18.08;;;10.60;;
20474;SDS011;10396;51.724;23.090;2022-09-09T07:46:24;16.38;;;9.52;;
20474;SDS011;10396;51.724;23.090;2022-09-09T07:48:53;15.40;;;8.68;;
20474;SDS011;10396;51.724;23.090;2022-09-09T07:51:22;20.98;;;9.25;;
20474;SDS011;10396;51.724;23.090;2022-09-09T07:53:52;14.40;;;8.63;;
20474;SDS011;10396;51.724;23.090;2022-09-09T07:56:22;15.07;;;9.00;;
20474;SDS011;10396;51.724;23.090;2022-09-09T07:58:49;15.05;;;8.80;;
20474;SDS011;10396;51.724;23.090;2022-09-09T08:01:18;16.55;;;8.98;;
20474;SDS011;10396;51.724;23.090;2022-09-09T08:03:52;15.40;;;8.80;;
20474;SDS011;10396;51.724;23.090;2022-09-09T08:06:21;15.98;;;8.95;;
20474;SDS011;10396;51.724;23.090;2022-09-09T08:08:50;14.80;;;8.85;;
20474;SDS011;10396;51.724;23.090;2022-09-09T08:11:18;16.02;;;9.40;;
20474;SDS011;10396;51.724;23.090;2022-09-09T08:13:47;18.35;;;9.55;;
20474;SDS011;10396;51.724;23.090;2022-09-09T08:16:15;15.48;;;8.52;;
20474;SDS011;10396;51.724;23.090;2022-09-09T08:18:44;14.82;;;9.00;;
20474;SDS011;10396;51.724;23.090;2022-09-09T08:21:14;15.77;;;8.70;;
20474;SDS011;10396;51.724;23.090;2022-09-09T08:23:43;15.43;;;8.77;;
20474;SDS011;10396;51.724;23.090;2022-09-09T08:26:13;18.17;;;8.82;;
20474;SDS011;10396;51.724;23.090;2022-09-09T08:28:41;16.75;;;9.10;;
20474;SDS011;10396;51.724;23.090;2022-09-09T08:31:11;16.80;;;9.15;;
20474;SDS011;10396;51.724;23.090;2022-09-09T08:33:40;22.88;;;8.85;;
20474;SDS011;10396;51.724;23.090;2022-09-09T08:36:11;16.05;;;9.60;;
20474;SDS011;10396;51.724;23.090;2022-09-09T08:38:40;16.25;;;9.40;;
20474;SDS011;10396;51.724;23.090;2022-09-09T08:41:24;15.93;;;8.95;;
20474;SDS011;10396;51.724;23.090;2022-09-09T08:44:04;18.70;;;9.65;;
20474;SDS011;10396;51.724;23.090;2022-09-09T08:46:38;21.88;;;10.52;;
20474;SDS011;10396;51.724;23.090;2022-09-09T08:49:16;15.65;;;9.82;;
20474;SDS011;10396;51.724;23.090;2022-09-09T08:51:51;17.88;;;9.70;;
20474;SDS011;10396;51.724;23.090;2022-09-09T08:54:21;16.90;;;9.50;;
20474;SDS011;10396;51.724;23.090;2022-09-09T08:56:49;19.85;;;9.43;;
20474;SDS011;10396;51.724;23.090;2022-09-09T08:59:18;15.75;;;9.25;;
20474;SDS011;10396;51.724;23.090;2022-09-09T09:01:51;15.95;;;9.55;;
20474;SDS011;10396;51.724;23.090;2022-09-09T09:04:28;16.42;;;9.27;;
20474;SDS011;10396;51.724;23.090;2022-09-09T09:07:03;15.43;;;9.38;;
20474;SDS011;10396;51.724;23.090;2022-09-09T09:09:36;15.82;;;10.00;;
20474;SDS011;10396;51.724;23.090;2022-09-09T09:12:14;17.80;;;10.00;;
20474;SDS011;10396;51.724;23.090;2022-09-09T09:14:43;15.35;;;9.13;;
20474;SDS011;10396;51.724;23.090;2022-09-09T09:17:13;18.73;;;9.88;;
20474;SDS011;10396;51.724;23.090;2022-09-09T09:19:42;16.25;;;9.77;;
20474;SDS011;10396;51.724;23.090;2022-09-09T09:22:12;15.95;;;9.00;;
20474;SDS011;10396;51.724;23.090;2022-09-09T09:24:45;16.88;;;9.02;;
20474;SDS011;10396;51.724;23.090;2022-09-09T09:27:20;18.52;;;9.60;;
20474;SDS011;10396;51.724;23.090;2022-09-09T09:29:54;15.48;;;8.93;;
20474;SDS011;10396;51.724;23.090;2022-09-09T09:32:25;15.85;;;9.23;;
20474;SDS011;10396;51.724;23.090;2022-09-09T09:34:53;14.15;;;8.50;;
20474;SDS011;10396;51.724;23.090;2022-09-09T09:37:25;17.77;;;8.30;;
20474;SDS011;10396;51.724;23.090;2022-09-09T09:39:54;16.80;;;8.60;;
20474;SDS011;10396;51.724;23.090;2022-09-09T09:42:22;16.17;;;8.52;;
20474;SDS011;10396;51.724;23.090;2022-09-09T09:44:50;19.80;;;8.98;;
20474;SDS011;10396;51.724;23.090;2022-09-09T09:47:18;18.40;;;8.48;;
20474;SDS011;10396;51.724;23.090;2022-09-09T09:49:54;16.48;;;8.35;;
20474;SDS011;10396;51.724;23.090;2022-09-09T09:52:24;13.52;;;7.85;;
20474;SDS011;10396;51.724;23.090;2022-09-09T09:54:53;15.60;;;7.97;;
20474;SDS011;10396;51.724;23.090;2022-09-09T09:57:23;16.95;;;7.15;;
20474;SDS011;10396;51.724;23.090;2022-09-09T10:00:02;12.50;;;7.05;;
20474;SDS011;10396;51.724;23.090;2022-09-09T10:02:37;13.38;;;6.82;;
20474;SDS011;10396;51.724;23.090;2022-09-09T10:05:12;14.57;;;6.85;;
20474;SDS011;10396;51.724;23.090;2022-09-09T10:07:41;13.07;;;6.93;;
20474;SDS011;10396;51.724;23.090;2022-09-09T10:10:13;11.30;;;6.13;;
20474;SDS011;10396;51.724;23.090;2022-09-09T10:12:47;12.20;;;6.10;;
20474;SDS011;10396;51.724;23.090;2022-09-09T10:15:27;10.90;;;6.10;;
20474;SDS011;10396;51.724;23.090;2022-09-09T10:18:00;11.88;;;6.07;;
20474;SDS011;10396;51.724;23.090;2022-09-09T10:20:39;11.75;;;5.97;;
20474;SDS011;10396;51.724;23.090;2022-09-09T10:23:14;10.60;;;5.72;;
20474;SDS011;10396;51.724;23.090;2022-09-09T10:28:45;10.82;;;5.97;;
20474;SDS011;10396;51.724;23.090;2022-09-09T10:31:28;10.65;;;5.55;;
20474;SDS011;10396;51.724;23.090;2022-09-09T10:34:01;11.15;;;5.70;;
20474;SDS011;10396;51.724;23.090;2022-09-09T10:36:34;11.38;;;5.65;;
20474;SDS011;10396;51.724;23.090;2022-09-09T10:39:12;13.48;;;5.78;;
20474;SDS011;10396;51.724;23.090;2022-09-09T10:41:48;10.75;;;5.65;;
20474;SDS011;10396;51.724;23.090;2022-09-09T10:44:24;10.95;;;5.65;;
20474;SDS011;10396;51.724;23.090;2022-09-09T10:47:14;11.18;;;5.75;;
20474;SDS011;10396;51.724;23.090;2022-09-09T10:52:55;10.90;;;5.78;;
20474;SDS011;10396;51.724;23.090;2022-09-09T10:55:39;11.95;;;6.07;;
20474;SDS011;10396;51.724;23.090;2022-09-09T10:58:10;11.95;;;5.68;;
20474;SDS011;10396;51.724;23.090;2022-09-09T11:00:40;10.60;;;5.70;;
20474;SDS011;10396;51.724;23.090;2022-09-09T11:03:18;10.35;;;5.95;;
20474;SDS011;10396;51.724;23.090;2022-09-09T11:05:49;10.00;;;5.60;;
20474;SDS011;10396;51.724;23.090;2022-09-09T11:08:20;11.25;;;5.72;;
20474;SDS011;10396;51.724;23.090;2022-09-09T11:10:50;11.68;;;5.88;;
20474;SDS011;10396;51.724;23.090;2022-09-09T11:13:23;12.13;;;5.45;;
20474;SDS011;10396;51.724;23.090;2022-09-09T11:15:53;10.20;;;5.55;;
20474;SDS011;10396;51.724;23.090;2022-09-09T11:18:26;11.02;;;5.85;;
20474;SDS011;10396;51.724;23.090;2022-09-09T11:20:58;10.57;;;6.00;;
20474;SDS011;10396;51.724;23.090;2022-09-09T11:23:29;11.27;;;5.80;;
20474;SDS011;10396;51.724;23.090;2022-09-09T11:26:02;11.30;;;5.97;;
20474;SDS011;10396;51.724;23.090;2022-09-09T11:28:39;11.82;;;5.97;;
20474;SDS011;10396;51.724;23.090;2022-09-09T11:31:21;10.73;;;5.50;;
20474;SDS011;10396;51.724;23.090;2022-09-09T11:34:12;10.65;;;6.05;;
20474;SDS011;10396;51.724;23.090;2022-09-09T11:42:35;12.00;;;5.97;;
20474;SDS011;10396;51.724;23.090;2022-09-09T11:45:10;10.73;;;5.95;;
20474;SDS011;10396;51.724;23.090;2022-09-09T11:47:51;10.95;;;6.10;;
20474;SDS011;10396;51.724;23.090;2022-09-09T11:53:17;10.93;;;5.53;;
20474;SDS011;10396;51.724;23.090;2022-09-09T11:56:04;11.48;;;5.47;;
20474;SDS011;10396;51.724;23.090;2022-09-09T11:58:36;11.00;;;5.95;;
20474;SDS011;10396;51.724;23.090;2022-09-09T12:01:13;11.18;;;6.03;;
20474;SDS011;10396;51.724;23.090;2022-09-09T12:03:42;10.82;;;5.82;;
20474;SDS011;10396;51.724;23.090;2022-09-09T12:06:13;10.93;;;6.05;;
20474;SDS011;10396;51.724;23.090;2022-09-09T12:08:44;12.23;;;6.60;;
20474;SDS011;10396;51.724;23.090;2022-09-09T12:11:24;11.80;;;6.22;;
20474;SDS011;10396;51.724;23.090;2022-09-09T12:13:53;10.45;;;5.43;;
20474;SDS011;10396;51.724;23.090;2022-09-09T12:16:28;11.38;;;5.40;;
20474;SDS011;10396;51.724;23.090;2022-09-09T12:19:05;13.48;;;6.75;;
20474;SDS011;10396;51.724;23.090;2022-09-09T12:21:35;10.82;;;5.45;;
20474;SDS011;10396;51.724;23.090;2022-09-09T12:24:07;10.65;;;5.15;;
20474;SDS011;10396;51.724;23.090;2022-09-09T12:26:39;10.20;;;5.50;;
20474;SDS011;10396;51.724;23.090;2022-09-09T12:29:12;10.30;;;5.43;;
20474;SDS011;10396;51.724;23.090;2022-09-09T12:31:50;9.45;;;4.82;;
20474;SDS011;10396;51.724;23.090;2022-09-09T12:34:25;9.95;;;5.13;;
20474;SDS011;10396;51.724;23.090;2022-09-09T12:36:58;11.65;;;4.93;;
20474;SDS011;10396;51.724;23.090;2022-09-09T12:39:31;8.90;;;4.80;;
20474;SDS011;10396;51.724;23.090;2022-09-09T12:42:02;9.80;;;4.90;;
20474;SDS011;10396;51.724;23.090;2022-09-09T12:44:30;9.52;;;5.03;;
20474;SDS011;10396;51.724;23.090;2022-09-09T12:46:58;9.90;;;4.97;;
20474;SDS011;10396;51.724;23.090;2022-09-09T12:49:28;9.20;;;4.80;;
20474;SDS011;10396;51.724;23.090;2022-09-09T12:52:01;10.68;;;5.20;;
20474;SDS011;10396;51.724;23.090;2022-09-09T12:54:31;12.60;;;4.60;;
20474;SDS011;10396;51.724;23.090;2022-09-09T12:57:02;11.18;;;5.90;;
20474;SDS011;10396;51.724;23.090;2022-09-09T12:59:34;10.05;;;5.25;;
20474;SDS011;10396;51.724;23.090;2022-09-09T13:02:11;11.75;;;5.10;;
20474;SDS011;10396;51.724;23.090;2022-09-09T13:04:45;11.90;;;6.72;;
20474;SDS011;10396;51.724;23.090;2022-09-09T13:07:13;10.75;;;4.80;;
20474;SDS011;10396;51.724;23.090;2022-09-09T13:09:41;10.80;;;5.03;;
20474;SDS011;10396;51.724;23.090;2022-09-09T13:12:13;16.17;;;5.93;;
20474;SDS011;10396;51.724;23.090;2022-09-09T13:14:43;10.50;;;4.60;;
20474;SDS011;10396;51.724;23.090;2022-09-09T13:17:17;10.93;;;4.78;;
20474;SDS011;10396;51.724;23.090;2022-09-09T13:19:47;14.40;;;5.65;;
20474;SDS011;10396;51.724;23.090;2022-09-09T13:22:19;10.30;;;4.57;;
20474;SDS011;10396;51.724;23.090;2022-09-09T13:24:57;9.65;;;4.90;;
20474;SDS011;10396;51.724;23.090;2022-09-09T13:27:29;8.68;;;4.22;;
20474;SDS011;10396;51.724;23.090;2022-09-09T13:29:59;9.57;;;5.00;;
20474;SDS011;10396;51.724;23.090;2022-09-09T13:32:27;9.43;;;4.65;;
20474;SDS011;10396;51.724;23.090;2022-09-09T13:34:57;14.60;;;5.28;;
20474;SDS011;10396;51.724;23.090;2022-09-09T13:37:31;11.38;;;4.80;;
20474;SDS011;10396;51.724;23.090;2022-09-09T13:40:02;10.00;;;4.60;;
20474;SDS011;10396;51.724;23.090;2022-09-09T13:42:33;10.45;;;4.57;;
20474;SDS011;10396;51.724;23.090;2022-09-09T13:45:03;14.20;;;4.72;;
20474;SDS011;10396;51.724;23.090;2022-09-09T13:47:32;17.80;;;4.80;;
20474;SDS011;10396;51.724;23.090;2022-09-09T13:50:09;12.70;;;5.28;;
20474;SDS011;10396;51.724;23.090;2022-09-09T13:52:46;9.45;;;4.68;;
20474;SDS011;10396;51.724;23.090;2022-09-09T13:55:14;10.88;;;5.85;;
20474;SDS011;10396;51.724;23.090;2022-09-09T13:57:51;12.68;;;6.35;;
20474;SDS011;10396;51.724;23.090;2022-09-09T14:00:20;11.07;;;6.25;;
20474;SDS011;10396;51.724;23.090;2022-09-09T14:02:47;12.50;;;5.80;;
20474;SDS011;10396;51.724;23.090;2022-09-09T14:05:15;9.18;;;4.97;;
20474;SDS011;10396;51.724;23.090;2022-09-09T14:07:43;9.20;;;4.90;;
20474;SDS011;10396;51.724;23.090;2022-09-09T14:10:11;11.57;;;5.75;;
20474;SDS011;10396;51.724;23.090;2022-09-09T14:12:39;12.02;;;5.30;;
20474;SDS011;10396;51.724;23.090;2022-09-09T14:15:09;8.32;;;4.32;;
20474;SDS011;10396;51.724;23.090;2022-09-09T14:17:37;8.60;;;4.65;;
20474;SDS011;10396;51.724;23.090;2022-09-09T14:20:05;10.90;;;6.10;;
20474;SDS011;10396;51.724;23.090;2022-09-09T14:22:34;10.10;;;5.57;;
20474;SDS011;10396;51.724;23.090;2022-09-09T14:25:02;8.90;;;4.53;;
20474;SDS011;10396;51.724;23.090;2022-09-09T14:27:31;9.48;;;4.30;;
20474;SDS011;10396;51.724;23.090;2022-09-09T14:29:59;9.15;;;4.40;;
20474;SDS011;10396;51.724;23.090;2022-09-09T14:32:28;9.82;;;4.90;;
20474;SDS011;10396;51.724;23.090;2022-09-09T14:34:55;9.43;;;4.50;;
20474;SDS011;10396;51.724;23.090;2022-09-09T14:37:23;7.95;;;4.00;;
20474;SDS011;10396;51.724;23.090;2022-09-09T14:39:51;9.88;;;5.20;;
20474;SDS011;10396;51.724;23.090;2022-09-09T14:42:19;11.23;;;4.95;;
20474;SDS011;10396;51.724;23.090;2022-09-09T14:44:47;9.15;;;4.47;;
20474;SDS011;10396;51.724;23.090;2022-09-09T14:47:15;9.38;;;4.50;;
20474;SDS011;10396;51.724;23.090;2022-09-09T14:49:44;9.05;;;4.30;;
20474;SDS011;10396;51.724;23.090;2022-09-09T14:52:15;9.05;;;4.38;;
20474;SDS011;10396;51.724;23.090;2022-09-09T14:54:43;9.40;;;4.70;;
20474;SDS011;10396;51.724;23.090;2022-09-09T14:57:10;8.30;;;4.10;;
20474;SDS011;10396;51.724;23.090;2022-09-09T14:59:38;8.85;;;4.38;;